createdAt,value
2019-02-17T00:01:55.530Z,32.30
2019-02-17T00:04:23.796Z,31.90
2019-02-17T00:06:52.054Z,26.57
2019-02-17T00:09:20.564Z,30.35
2019-02-17T00:11:48.824Z,26.02
2019-02-17T00:14:17.092Z,30.68
2019-02-17T00:16:45.345Z,27.98
2019-02-17T00:19:13.623Z,31.10
2019-02-17T00:21:41.895Z,28.07
2019-02-17T00:24:10.157Z,26.80
2019-02-17T00:26:38.422Z,27.40
2019-02-17T00:29:06.670Z,29.93
2019-02-17T00:31:34.936Z,35.33
2019-02-17T00:34:03.213Z,29.30
2019-02-17T00:36:31.461Z,32.23
2019-02-17T00:38:59.724Z,29.92
2019-02-17T00:41:27.994Z,29.55
2019-02-17T00:43:56.256Z,30.03
2019-02-17T00:46:24.510Z,26.53
2019-02-17T00:48:52.791Z,29.63
2019-02-17T00:51:21.044Z,30.03
2019-02-17T00:53:49.315Z,34.13
2019-02-17T00:56:17.576Z,26.93
2019-02-17T00:58:45.828Z,28.70
2019-02-17T01:01:14.111Z,30.70
2019-02-17T01:03:42.380Z,27.30
2019-02-17T01:06:10.636Z,29.00
2019-02-17T01:08:38.920Z,24.87
2019-02-17T01:11:07.180Z,34.87
2019-02-17T01:13:35.466Z,29.87
2019-02-17T01:16:03.725Z,26.75
2019-02-17T01:18:32.007Z,30.37
2019-02-17T01:21:00.276Z,29.90
2019-02-17T01:23:28.537Z,30.80
2019-02-17T01:25:56.789Z,30.83
2019-02-17T01:28:25.054Z,27.70
2019-02-17T01:30:53.327Z,30.67
2019-02-17T01:33:21.583Z,28.15
2019-02-17T01:35:49.852Z,31.83
2019-02-17T01:38:18.123Z,29.23
2019-02-17T01:40:46.380Z,27.23
2019-02-17T01:43:14.663Z,29.70
2019-02-17T01:45:42.933Z,27.70
2019-02-17T01:48:11.218Z,27.10
2019-02-17T01:50:39.492Z,24.90
2019-02-17T01:53:07.749Z,25.50
2019-02-17T01:55:36.029Z,26.03
2019-02-17T01:58:04.302Z,23.20
2019-02-17T02:00:32.567Z,27.47
2019-02-17T02:03:01.543Z,23.75
2019-02-17T02:05:29.811Z,23.97
2019-02-17T02:07:58.079Z,23.32
2019-02-17T02:10:26.351Z,25.82
2019-02-17T02:12:54.608Z,19.98
2019-02-17T02:15:22.891Z,28.45
2019-02-17T02:17:51.151Z,24.32
2019-02-17T02:20:19.423Z,25.20
2019-02-17T02:22:47.702Z,25.97
2019-02-17T02:25:15.971Z,25.40
2019-02-17T02:27:44.230Z,22.57
2019-02-17T02:30:13.665Z,20.73
2019-02-17T02:32:41.936Z,23.67
2019-02-17T02:35:10.218Z,25.33
2019-02-17T02:37:38.473Z,25.30
2019-02-17T02:40:07.833Z,24.93
2019-02-17T02:42:36.087Z,22.37
2019-02-17T02:45:06.509Z,22.83
2019-02-17T02:47:34.768Z,22.00
2019-02-17T02:50:03.026Z,21.27
2019-02-17T02:52:31.311Z,26.13
2019-02-17T02:54:59.583Z,24.00
2019-02-17T02:57:27.855Z,24.13
2019-02-17T02:59:56.113Z,23.23
2019-02-17T03:02:24.373Z,18.93
2019-02-17T03:04:52.639Z,22.23
2019-02-17T03:07:20.977Z,25.63
2019-02-17T03:09:49.238Z,17.97
2019-02-17T03:12:17.504Z,21.37
2019-02-17T03:14:45.774Z,17.50
2019-02-17T03:17:14.059Z,23.93
2019-02-17T03:19:42.301Z,18.57
2019-02-17T03:22:10.590Z,18.87
2019-02-17T03:24:38.865Z,20.60
2019-02-17T03:27:07.141Z,19.57
2019-02-17T03:29:35.411Z,26.73
2019-02-17T03:32:03.682Z,22.40
2019-02-17T03:34:31.942Z,26.07
2019-02-17T03:37:00.224Z,28.33
2019-02-17T03:39:28.467Z,31.03
2019-02-17T03:41:56.723Z,26.17
2019-02-17T03:44:24.986Z,25.17
2019-02-17T03:46:53.265Z,26.93
2019-02-17T03:49:21.533Z,27.95
2019-02-17T03:51:49.809Z,31.37
2019-02-17T03:54:18.077Z,35.92
2019-02-17T03:56:46.345Z,36.20
2019-02-17T03:59:14.619Z,34.83
2019-02-17T04:01:42.942Z,30.70
2019-02-17T04:04:11.151Z,33.13
2019-02-17T04:06:39.406Z,32.30
2019-02-17T04:09:07.979Z,34.05
2019-02-17T04:11:36.307Z,36.00
2019-02-17T04:14:04.578Z,30.57
2019-02-17T04:16:32.851Z,35.73
2019-02-17T04:19:01.145Z,32.15
2019-02-17T04:21:29.414Z,37.43
2019-02-17T04:23:57.699Z,34.45
2019-02-17T04:26:25.981Z,34.70
2019-02-17T04:28:54.260Z,35.10
2019-02-17T04:31:22.534Z,29.77
2019-02-17T04:33:50.788Z,36.27
2019-02-17T04:36:19.049Z,32.25
2019-02-17T04:38:47.326Z,33.97
2019-02-17T04:41:15.581Z,34.93
2019-02-17T04:43:43.848Z,31.13
2019-02-17T04:46:12.111Z,32.40
2019-02-17T04:48:40.371Z,37.13
2019-02-17T04:51:08.635Z,36.00
2019-02-17T04:53:36.911Z,36.23
2019-02-17T04:56:05.169Z,37.17
2019-02-17T04:58:33.446Z,36.70
2019-02-17T05:01:01.718Z,39.47
2019-02-17T05:03:29.985Z,34.60
2019-02-17T05:05:58.263Z,39.40
2019-02-17T05:08:26.524Z,36.30
2019-02-17T05:10:54.813Z,34.35
2019-02-17T05:13:23.083Z,35.23
2019-02-17T05:15:51.320Z,36.50
2019-02-17T05:18:19.588Z,38.73
2019-02-17T05:20:47.861Z,41.80
2019-02-17T05:23:16.137Z,36.97
2019-02-17T05:25:44.426Z,36.70
2019-02-17T05:28:12.704Z,36.90
2019-02-17T05:30:52.246Z,34.83
2019-02-17T05:33:10.977Z,35.07
2019-02-17T05:35:39.255Z,36.97
2019-02-17T05:38:07.515Z,32.83
2019-02-17T05:40:36.536Z,44.93
2019-02-17T05:43:05.026Z,43.67
2019-02-17T05:45:33.304Z,42.67
2019-02-17T05:48:01.582Z,38.75
2019-02-17T05:50:29.939Z,39.70
2019-02-17T05:52:58.207Z,41.85
2019-02-17T05:55:26.489Z,42.95
2019-02-17T05:57:54.758Z,40.52
2019-02-17T06:00:24.713Z,39.50
2019-02-17T06:02:52.960Z,41.80
2019-02-17T06:05:21.226Z,43.63
2019-02-17T06:07:49.489Z,44.53
2019-02-17T06:10:17.751Z,42.83
2019-02-17T06:12:46.029Z,41.70
2019-02-17T06:15:14.290Z,44.05
2019-02-17T06:17:42.566Z,40.90
2019-02-17T06:20:11.394Z,43.07
2019-02-17T06:22:39.648Z,42.93
2019-02-17T06:25:07.939Z,44.50
2019-02-17T06:27:36.200Z,47.40
2019-02-17T06:30:06.089Z,46.63
2019-02-17T06:32:34.348Z,41.53
2019-02-17T06:35:02.624Z,43.17
2019-02-17T06:37:30.877Z,43.07
2019-02-17T06:39:59.171Z,39.53
2019-02-17T06:42:27.447Z,47.80
2019-02-17T06:44:55.734Z,45.60
2019-02-17T06:47:25.677Z,47.08
2019-02-17T06:49:53.899Z,50.80
2019-02-17T06:52:22.163Z,51.75
2019-02-17T06:54:52.095Z,44.03
2019-02-17T06:57:22.000Z,44.40
2019-02-17T06:59:51.915Z,47.13
2019-02-17T07:02:20.172Z,52.70
2019-02-17T07:05:07.871Z,53.07
2019-02-17T07:07:36.125Z,47.67
2019-02-17T07:10:05.231Z,49.80
2019-02-17T07:12:33.501Z,51.87
2019-02-17T07:15:02.594Z,50.83
2019-02-17T07:17:30.861Z,52.58
2019-02-17T07:19:59.125Z,46.83
2019-02-17T07:22:27.403Z,50.25
2019-02-17T07:24:55.663Z,54.90
2019-02-17T07:27:23.926Z,48.92
2019-02-17T07:29:52.193Z,51.70
2019-02-17T07:32:20.464Z,48.90
2019-02-17T07:34:48.734Z,49.90
2019-02-17T07:37:19.267Z,46.63
2019-02-17T07:39:46.984Z,45.15
2019-02-17T07:42:15.347Z,51.92
2019-02-17T07:44:43.631Z,48.63
2019-02-17T07:47:11.874Z,45.57
2019-02-17T07:49:40.144Z,47.20
2019-02-17T07:52:08.474Z,51.60
2019-02-17T07:54:36.758Z,52.33
2019-02-17T07:57:05.025Z,50.17
2019-02-17T07:59:33.286Z,50.20
2019-02-17T08:02:01.560Z,51.37
2019-02-17T08:04:29.839Z,46.92
2019-02-17T08:06:58.109Z,50.63
2019-02-17T08:09:26.380Z,47.97
2019-02-17T08:11:54.634Z,46.95
2019-02-17T08:14:22.924Z,55.87
2019-02-17T08:16:51.190Z,47.47
2019-02-17T08:19:19.450Z,54.23
2019-02-17T08:21:47.702Z,49.07
2019-02-17T08:24:15.961Z,58.07
2019-02-17T08:26:44.230Z,57.80
2019-02-17T08:29:12.500Z,47.37
2019-02-17T08:31:40.766Z,46.18
2019-02-17T08:34:09.046Z,52.10
2019-02-17T08:36:37.302Z,49.97
2019-02-17T08:39:06.155Z,53.47
2019-02-17T08:41:34.404Z,55.27
2019-02-17T08:44:02.666Z,50.00
2019-02-17T08:46:30.915Z,46.53
2019-02-17T08:48:59.209Z,53.50
2019-02-17T08:51:27.485Z,48.43
2019-02-17T08:53:55.725Z,50.60
2019-02-17T08:56:23.997Z,49.23
2019-02-17T08:58:52.266Z,49.93
2019-02-17T09:01:20.532Z,46.40
2019-02-17T09:03:48.785Z,45.00
2019-02-17T09:06:17.709Z,49.13
2019-02-17T09:08:45.963Z,44.58
2019-02-17T09:11:14.229Z,51.28
2019-02-17T09:13:42.492Z,49.50
2019-02-17T09:16:10.760Z,49.65
2019-02-17T09:18:39.017Z,51.18
2019-02-17T09:21:07.294Z,48.60
2019-02-17T09:23:35.562Z,49.75
2019-02-17T09:26:03.864Z,49.10
2019-02-17T09:28:32.124Z,53.60
2019-02-17T09:31:00.392Z,48.23
2019-02-17T09:33:28.666Z,47.97
2019-02-17T09:35:56.934Z,46.43
2019-02-17T09:38:25.193Z,49.70
2019-02-17T09:40:53.486Z,44.38
2019-02-17T09:43:21.716Z,47.58
2019-02-17T09:45:49.983Z,45.03
2019-02-17T09:48:18.242Z,44.57
2019-02-17T09:50:46.522Z,47.23
2019-02-17T09:53:14.784Z,45.17
2019-02-17T09:55:43.055Z,47.10
2019-02-17T09:58:12.106Z,36.75
2019-02-17T10:00:40.356Z,48.13
2019-02-17T10:03:08.640Z,40.15
2019-02-17T10:05:36.906Z,42.70
2019-02-17T10:08:05.178Z,43.77
2019-02-17T10:10:33.447Z,42.97
2019-02-17T10:13:01.703Z,44.07
2019-02-17T10:15:30.020Z,37.17
2019-02-17T10:17:58.249Z,41.03
2019-02-17T10:20:26.525Z,38.92
2019-02-17T10:22:54.809Z,48.47
2019-02-17T10:25:23.069Z,44.20
2019-02-17T10:27:51.338Z,46.73
2019-02-17T10:30:19.683Z,46.40
2019-02-17T10:32:47.965Z,53.37
2019-02-17T10:35:16.242Z,48.68
2019-02-17T10:37:44.509Z,46.80
2019-02-17T10:40:15.680Z,48.23
2019-02-17T10:42:43.971Z,51.30
2019-02-17T10:45:12.486Z,45.03
2019-02-17T10:47:40.769Z,48.80
2019-02-17T10:50:13.124Z,48.83
2019-02-17T10:52:41.399Z,48.70
2019-02-17T10:55:11.612Z,44.23
2019-02-17T10:57:39.879Z,48.13
2019-02-17T11:00:17.382Z,46.15
2019-02-17T11:02:47.478Z,49.60
2019-02-17T11:05:15.722Z,44.03
2019-02-17T11:07:44.008Z,46.45
2019-02-17T11:10:13.012Z,49.93
2019-02-17T11:12:41.293Z,44.97
2019-02-17T11:15:15.661Z,43.77
2019-02-17T11:17:43.962Z,48.90
2019-02-17T11:20:12.474Z,48.10
2019-02-17T11:22:40.744Z,43.60
2019-02-17T11:25:09.096Z,47.40
2019-02-17T11:27:37.376Z,46.67
2019-02-17T11:30:14.570Z,49.90
2019-02-17T11:32:42.835Z,45.03
2019-02-17T11:35:11.105Z,49.13
2019-02-17T11:37:39.377Z,46.95
2019-02-17T11:40:10.211Z,51.83
2019-02-17T11:42:38.457Z,50.57
2019-02-17T11:45:12.519Z,44.40
2019-02-17T11:47:40.769Z,46.97
2019-02-17T11:50:09.782Z,49.03
2019-02-17T11:52:38.061Z,39.38
2019-02-17T11:55:09.469Z,47.57
2019-02-17T11:57:37.728Z,42.97
2019-02-17T12:00:17.710Z,45.10
2019-02-17T12:02:46.072Z,45.13
2019-02-17T12:05:14.509Z,41.37
2019-02-17T12:07:42.782Z,44.95
2019-02-17T12:10:11.527Z,39.83
2019-02-17T12:12:39.964Z,41.48
2019-02-17T12:15:13.238Z,46.70
2019-02-17T12:17:41.511Z,43.87
2019-02-17T12:20:29.597Z,40.57
2019-02-17T12:22:59.517Z,36.85
2019-02-17T12:25:29.420Z,38.07
2019-02-17T12:28:08.266Z,38.20
2019-02-17T12:30:37.474Z,34.97
2019-02-17T12:33:05.747Z,34.77
2019-02-17T12:35:34.019Z,34.10
2019-02-17T12:38:02.302Z,36.50
2019-02-17T12:40:30.571Z,38.80
2019-02-17T12:42:58.842Z,35.30
2019-02-17T12:45:27.135Z,36.57
2019-02-17T12:47:58.375Z,32.60
2019-02-17T12:50:25.438Z,36.27
2019-02-17T12:52:53.707Z,31.90
2019-02-17T12:55:21.983Z,34.60
2019-02-17T12:57:50.258Z,30.13
2019-02-17T13:00:18.531Z,29.90
2019-02-17T13:02:47.097Z,28.63
2019-02-17T13:05:15.365Z,28.30
2019-02-17T13:07:43.623Z,28.47
2019-02-17T13:10:12.523Z,32.97
2019-02-17T13:12:40.785Z,29.13
2019-02-17T13:15:13.184Z,30.90
2019-02-17T13:17:41.477Z,30.92
2019-02-17T13:20:13.680Z,32.00
2019-02-17T13:22:41.965Z,29.77
2019-02-17T13:25:14.917Z,30.20
2019-02-17T13:27:43.192Z,31.02
2019-02-17T13:30:17.210Z,28.80
2019-02-17T13:32:45.480Z,28.00
2019-02-17T13:35:13.753Z,28.33
2019-02-17T13:37:42.025Z,27.00
2019-02-17T13:40:12.459Z,26.93
2019-02-17T13:42:40.735Z,25.93
2019-02-17T13:45:12.185Z,26.55
2019-02-17T13:47:40.457Z,24.87
2019-02-17T13:50:14.504Z,29.57
2019-02-17T13:52:42.767Z,26.43
2019-02-17T13:55:11.097Z,27.23
2019-02-17T13:57:39.387Z,26.70
2019-02-17T14:00:13.159Z,28.27
2019-02-17T14:02:41.442Z,27.80
2019-02-17T14:05:09.769Z,28.73
2019-02-17T14:07:38.038Z,29.47
2019-02-17T14:10:09.141Z,27.22
2019-02-17T14:12:37.420Z,24.32
2019-02-17T14:15:11.787Z,29.37
2019-02-17T14:17:40.053Z,26.20
2019-02-17T14:20:09.966Z,28.10
2019-02-17T14:22:38.237Z,27.40
2019-02-17T14:25:10.710Z,25.25
2019-02-17T14:27:38.348Z,25.50
2019-02-17T14:30:14.199Z,29.00
2019-02-17T14:32:42.481Z,27.42
2019-02-17T14:35:10.747Z,25.20
2019-02-17T14:37:40.020Z,24.45
2019-02-17T14:40:12.653Z,24.65
2019-02-17T14:42:40.947Z,23.65
2019-02-17T14:45:15.916Z,28.60
2019-02-17T14:47:44.200Z,22.80
2019-02-17T14:50:12.817Z,26.00
2019-02-17T14:52:41.092Z,26.80
2019-02-17T14:55:11.376Z,26.30
2019-02-17T14:57:39.642Z,22.60
2019-02-17T15:00:13.100Z,28.02
2019-02-17T15:02:41.346Z,24.83
2019-02-17T15:05:10.348Z,26.53
2019-02-17T15:07:38.626Z,26.10
2019-02-17T15:10:09.338Z,24.70
2019-02-17T15:12:37.611Z,25.10
2019-02-17T15:15:16.276Z,24.20
2019-02-17T15:17:44.549Z,23.90
2019-02-17T15:20:15.525Z,26.40
2019-02-17T15:22:43.775Z,21.67
2019-02-17T15:25:12.336Z,32.53
2019-02-17T15:27:40.631Z,28.33
2019-02-17T15:30:13.572Z,26.63
2019-02-17T15:32:41.936Z,29.30
2019-02-17T15:35:10.206Z,25.70
2019-02-17T15:37:38.544Z,26.50
2019-02-17T15:40:11.775Z,26.30
2019-02-17T15:42:40.127Z,24.37
2019-02-17T15:45:14.522Z,27.20
2019-02-17T15:47:42.876Z,27.30
2019-02-17T15:50:12.292Z,27.80
2019-02-17T15:52:40.547Z,27.40
2019-02-17T15:55:10.767Z,28.23
2019-02-17T15:57:39.058Z,23.20
2019-02-17T16:00:13.394Z,24.18
2019-02-17T16:02:41.698Z,27.17
2019-02-17T16:05:10.359Z,27.67
2019-02-17T16:07:38.657Z,24.23
2019-02-17T16:10:09.668Z,27.23
2019-02-17T16:12:37.944Z,25.70
2019-02-17T16:15:14.311Z,27.67
2019-02-17T16:17:42.584Z,28.33
2019-02-17T16:20:12.714Z,24.37
2019-02-17T16:22:40.977Z,24.87
2019-02-17T16:25:10.381Z,24.43
2019-02-17T16:27:38.653Z,30.17
2019-02-17T16:30:10.109Z,27.90
2019-02-17T16:32:38.401Z,27.93
2019-02-17T16:35:07.247Z,28.40
2019-02-17T16:37:35.513Z,32.10
2019-02-17T16:40:04.112Z,29.93
2019-02-17T16:42:32.394Z,26.70
2019-02-17T16:45:00.981Z,29.80
2019-02-17T16:47:29.420Z,30.13
2019-02-17T16:49:57.685Z,33.37
2019-02-17T16:52:25.987Z,33.40
2019-02-17T16:54:54.259Z,30.00
2019-02-17T16:57:22.536Z,34.30
2019-02-17T16:59:50.809Z,32.75
2019-02-17T17:02:19.095Z,32.30
2019-02-17T17:04:48.926Z,30.30
2019-02-17T17:07:17.240Z,30.55
2019-02-17T17:09:45.519Z,31.40
2019-02-17T17:12:13.813Z,31.80
2019-02-17T17:14:42.093Z,34.77
2019-02-17T17:17:10.382Z,33.67
2019-02-17T17:19:38.665Z,32.77
2019-02-17T17:22:06.930Z,33.80
2019-02-17T17:24:35.210Z,35.90
2019-02-17T17:27:03.552Z,31.87
2019-02-17T17:29:31.825Z,32.98
2019-02-17T17:32:00.090Z,36.63
2019-02-17T17:34:28.374Z,34.23
2019-02-17T17:36:56.669Z,34.55
2019-02-17T17:39:24.959Z,29.45
2019-02-17T17:41:53.224Z,37.10
2019-02-17T17:44:21.495Z,35.93
2019-02-17T17:46:49.770Z,36.03
2019-02-17T17:49:19.499Z,39.43
2019-02-17T17:51:47.896Z,39.23
2019-02-17T17:54:16.184Z,34.57
2019-02-17T17:56:44.444Z,36.90
2019-02-17T17:59:12.708Z,35.60
2019-02-17T18:01:40.977Z,36.50
2019-02-17T18:04:09.248Z,34.40
2019-02-17T18:06:37.526Z,37.57
2019-02-17T18:09:06.484Z,37.23
2019-02-17T18:11:34.749Z,36.63
2019-02-17T18:14:02.994Z,36.43
2019-02-17T18:16:31.260Z,36.83
2019-02-17T18:18:59.524Z,33.57
2019-02-17T18:21:27.799Z,32.50
2019-02-17T18:23:56.068Z,35.15
2019-02-17T18:26:24.325Z,33.40
2019-02-17T18:28:52.608Z,34.57
2019-02-17T18:31:20.888Z,35.67
2019-02-17T18:33:49.179Z,36.50
2019-02-17T18:36:17.493Z,32.10
2019-02-17T18:38:45.740Z,37.07
2019-02-17T18:41:14.003Z,37.17
2019-02-17T18:43:42.767Z,35.37
2019-02-17T18:46:11.100Z,38.48
2019-02-17T18:48:39.354Z,35.53
2019-02-17T18:51:07.623Z,34.67
2019-02-17T18:53:35.878Z,33.90
2019-02-17T18:56:04.141Z,34.73
2019-02-17T18:58:32.409Z,38.63
2019-02-17T19:01:00.680Z,38.40
2019-02-17T19:03:29.031Z,40.77
2019-02-17T19:05:57.292Z,39.40
2019-02-17T19:08:25.548Z,36.53
2019-02-17T19:10:53.808Z,37.33
2019-02-17T19:13:22.063Z,36.33
2019-02-17T19:15:50.330Z,35.47
2019-02-17T19:18:18.594Z,32.17
2019-02-17T19:20:46.875Z,36.88
2019-02-17T19:23:15.145Z,36.15
2019-02-17T19:25:43.412Z,38.70
2019-02-17T19:28:11.669Z,35.73
2019-02-17T19:30:39.929Z,36.87
2019-02-17T19:33:08.181Z,36.67
2019-02-17T19:35:41.919Z,39.00
2019-02-17T19:38:06.468Z,41.93
2019-02-17T19:40:34.723Z,37.23
2019-02-17T19:43:03.621Z,40.13
2019-02-17T19:45:31.923Z,38.77
2019-02-17T19:48:00.178Z,38.40
2019-02-17T19:50:28.429Z,36.17
2019-02-17T19:52:56.678Z,35.00
2019-02-17T19:55:24.930Z,34.03
2019-02-17T19:57:53.188Z,38.48
2019-02-17T20:00:22.182Z,41.68
2019-02-17T20:03:08.273Z,39.77
2019-02-17T20:05:38.164Z,39.90
2019-02-17T20:08:06.424Z,35.17
2019-02-17T20:10:34.689Z,39.87
2019-02-17T20:13:02.957Z,35.90
2019-02-17T20:15:33.096Z,37.30
2019-02-17T20:18:01.372Z,39.47
2019-02-17T20:20:29.651Z,34.85
2019-02-17T20:22:57.935Z,38.13
2019-02-17T20:25:26.205Z,34.20
2019-02-17T20:27:54.473Z,41.20
2019-02-17T20:30:22.760Z,36.53
2019-02-17T20:32:51.038Z,40.43
2019-02-17T20:35:19.300Z,37.40
2019-02-17T20:37:47.584Z,39.57
2019-02-17T20:40:17.197Z,40.83
2019-02-17T20:42:45.468Z,45.80
2019-02-17T20:45:13.811Z,37.53
2019-02-17T20:47:42.582Z,38.02
2019-02-17T20:50:13.266Z,36.63
2019-02-17T20:52:41.541Z,37.08
2019-02-17T20:55:11.440Z,36.30
2019-02-17T20:57:40.022Z,43.75
2019-02-17T21:00:15.587Z,39.30
2019-02-17T21:02:43.849Z,37.17
2019-02-17T21:05:12.120Z,36.40
2019-02-17T21:07:40.387Z,36.97
2019-02-17T21:10:12.578Z,42.63
2019-02-17T21:12:40.848Z,40.33
2019-02-17T21:15:11.215Z,39.53
2019-02-17T21:17:39.952Z,38.50
2019-02-17T21:20:09.675Z,37.53
2019-02-17T21:22:37.941Z,38.97
2019-02-17T21:25:11.094Z,42.43
2019-02-17T21:27:39.353Z,38.47
2019-02-17T21:30:19.905Z,39.07
2019-02-17T21:32:48.185Z,38.47
2019-02-17T21:35:17.072Z,33.67
2019-02-17T21:37:45.346Z,38.17
2019-02-17T21:40:14.152Z,38.30
2019-02-17T21:42:42.425Z,42.08
2019-02-17T21:45:16.832Z,35.27
2019-02-17T21:47:45.088Z,41.57
2019-02-17T21:50:14.093Z,37.53
2019-02-17T21:52:42.595Z,40.37
2019-02-17T21:55:14.032Z,39.07
2019-02-17T21:57:42.312Z,39.35
2019-02-17T22:00:20.360Z,40.13
2019-02-17T22:02:48.696Z,37.63
2019-02-17T22:05:16.968Z,37.90
2019-02-17T22:07:45.229Z,41.53
2019-02-17T22:10:20.035Z,36.75
2019-02-17T22:12:50.932Z,40.17
2019-02-17T22:15:19.722Z,39.17
2019-02-17T22:17:48.005Z,44.67
2019-02-17T22:20:16.268Z,44.55
2019-02-17T22:22:44.535Z,42.33
2019-02-17T22:25:14.325Z,45.67
2019-02-17T22:27:42.593Z,49.75
2019-02-17T22:30:12.762Z,49.63
2019-02-17T22:32:41.025Z,44.13
2019-02-17T22:35:09.555Z,42.33
2019-02-17T22:37:37.844Z,43.10
2019-02-17T22:40:11.449Z,42.27
2019-02-17T22:42:39.724Z,43.93
2019-02-17T22:45:09.935Z,43.33
2019-02-17T22:47:38.189Z,46.70
2019-02-17T22:50:09.767Z,42.40
2019-02-17T22:52:38.020Z,42.90
2019-02-17T22:55:09.099Z,44.13
2019-02-17T22:57:37.358Z,41.77
2019-02-17T23:00:26.586Z,45.47
2019-02-17T23:02:54.863Z,49.17
2019-02-17T23:05:23.148Z,39.43
2019-02-17T23:07:51.428Z,48.10
2019-02-17T23:10:19.707Z,48.07
2019-02-17T23:12:47.977Z,54.03
2019-02-17T23:15:16.250Z,49.87
2019-02-17T23:17:44.545Z,49.90
2019-02-17T23:20:13.650Z,48.10
2019-02-17T23:22:41.932Z,47.48
2019-02-17T23:25:10.189Z,50.17
2019-02-17T23:27:38.470Z,43.90
2019-02-17T23:30:08.876Z,38.48
2019-02-17T23:32:37.151Z,39.40
2019-02-17T23:35:05.993Z,41.27
2019-02-17T23:37:34.273Z,41.90
2019-02-17T23:40:02.517Z,40.70
2019-02-17T23:42:30.773Z,40.03
2019-02-17T23:44:59.055Z,42.57
2019-02-17T23:47:27.317Z,38.30
2019-02-17T23:49:55.579Z,39.73
2019-02-17T23:52:23.849Z,38.70
2019-02-17T23:54:52.107Z,44.67
2019-02-17T23:57:20.376Z,39.30
2019-02-17T23:59:48.630Z,42.40
